createdAt,value
2023-04-29T00:00:49.343Z,61.42
2023-04-29T00:03:16.309Z,61.29
2023-04-29T00:05:43.322Z,61.27
2023-04-29T00:08:10.124Z,61.34
2023-04-29T00:10:37.707Z,61.48
2023-04-29T00:13:04.512Z,61.49
2023-04-29T00:15:31.398Z,61.44
2023-04-29T00:17:58.171Z,61.32
2023-04-29T00:20:24.979Z,61.45
2023-04-29T00:22:51.972Z,61.38
2023-04-29T00:25:18.743Z,61.39
2023-04-29T00:27:45.547Z,61.42
2023-04-29T00:30:12.374Z,61.49
2023-04-29T00:32:39.191Z,61.36
2023-04-29T00:35:06.651Z,61.21
2023-04-29T00:37:34.538Z,61.18
2023-04-29T00:40:01.301Z,61.26
2023-04-29T00:42:29.475Z,61.15
2023-04-29T00:44:56.211Z,61.32
2023-04-29T00:47:23.003Z,61.43
2023-04-29T00:49:50.032Z,61.22
2023-04-29T00:52:18.026Z,61.25
2023-04-29T00:54:44.987Z,61.19
2023-04-29T00:57:12.174Z,61.07
2023-04-29T00:59:39.126Z,61.22
2023-04-29T01:02:06.927Z,61.13
2023-04-29T01:04:33.844Z,61.25
2023-04-29T01:07:16.946Z,61.31
2023-04-29T01:10:07.674Z,61.17
2023-04-29T01:12:46.976Z,61.22
2023-04-29T01:15:29.237Z,61.29
2023-04-29T01:18:26.534Z,61.17
2023-04-29T01:20:53.667Z,61.47
2023-04-29T01:23:20.437Z,61.42
2023-04-29T01:25:48.866Z,61.34
2023-04-29T01:28:42.245Z,61.37
2023-04-29T01:31:20.553Z,61.41
2023-04-29T01:34:15.268Z,61.41
2023-04-29T01:37:06.580Z,61.41
2023-04-29T01:39:46.064Z,61.37
2023-04-29T01:42:29.291Z,61.54
2023-04-29T01:44:57.209Z,61.43
2023-04-29T01:47:24.844Z,61.69
2023-04-29T01:49:51.839Z,61.67
2023-04-29T01:52:18.820Z,61.89
2023-04-29T01:54:46.100Z,61.71
2023-04-29T01:57:12.945Z,61.85
2023-04-29T01:59:40.068Z,61.96
2023-04-29T02:02:06.866Z,61.96
2023-04-29T02:04:34.463Z,61.95
2023-04-29T02:07:01.612Z,61.83
2023-04-29T02:09:28.363Z,61.88
2023-04-29T02:11:55.226Z,61.85
2023-04-29T02:14:21.999Z,61.78
2023-04-29T02:16:49.010Z,61.94
2023-04-29T02:19:16.487Z,61.70
2023-04-29T02:21:43.413Z,61.78
2023-04-29T02:24:10.412Z,61.94
2023-04-29T02:26:38.239Z,61.78
2023-04-29T02:29:05.047Z,61.73
2023-04-29T02:31:32.694Z,61.69
2023-04-29T02:34:00.364Z,61.94
2023-04-29T02:36:27.311Z,61.95
2023-04-29T02:38:55.892Z,61.97
2023-04-29T02:41:23.070Z,61.87
2023-04-29T02:43:49.844Z,61.85
2023-04-29T02:46:16.836Z,61.76
2023-04-29T02:48:43.634Z,61.74
2023-04-29T02:51:10.697Z,61.92
2023-04-29T02:53:37.583Z,61.73
2023-04-29T02:56:05.259Z,61.48
2023-04-29T02:58:32.042Z,61.43
2023-04-29T03:00:58.920Z,61.38
2023-04-29T03:03:25.858Z,61.43
2023-04-29T03:05:52.855Z,61.54
2023-04-29T03:08:19.665Z,61.53
2023-04-29T03:10:46.604Z,61.39
2023-04-29T03:13:13.965Z,61.25
2023-04-29T03:15:40.942Z,61.35
2023-04-29T03:18:07.881Z,61.42
2023-04-29T03:20:34.783Z,61.39
2023-04-29T03:23:02.199Z,61.13
2023-04-29T03:25:29.130Z,61.50
2023-04-29T03:27:56.053Z,61.34
2023-04-29T03:30:22.910Z,61.24
2023-04-29T03:32:49.674Z,61.29
2023-04-29T03:35:16.542Z,61.40
2023-04-29T03:37:44.568Z,61.23
2023-04-29T03:40:12.722Z,61.11
2023-04-29T03:42:39.543Z,61.30
2023-04-29T03:45:07.138Z,61.26
2023-04-29T03:47:34.165Z,61.24
2023-04-29T03:50:01.029Z,61.16
2023-04-29T03:52:27.842Z,61.27
2023-04-29T03:54:54.607Z,61.24
2023-04-29T03:57:21.562Z,61.29
2023-04-29T03:59:50.644Z,61.41
2023-04-29T04:02:17.985Z,61.00
2023-04-29T04:04:45.349Z,61.02
2023-04-29T04:07:12.339Z,61.30
2023-04-29T04:09:39.117Z,61.44
2023-04-29T04:12:06.671Z,61.12
2023-04-29T04:14:33.508Z,61.36
2023-04-29T04:17:01.374Z,61.26
2023-04-29T04:19:29.136Z,61.41
2023-04-29T04:21:56.197Z,61.23
2023-04-29T04:24:23.451Z,61.48
2023-04-29T04:26:50.308Z,61.47
2023-04-29T04:29:17.101Z,61.72
2023-04-29T04:31:46.272Z,61.81
2023-04-29T04:34:14.614Z,61.63
2023-04-29T04:36:42.186Z,61.77
2023-04-29T04:39:08.982Z,61.72
2023-04-29T04:41:35.795Z,61.49
2023-04-29T04:44:03.024Z,61.76
2023-04-29T04:46:29.781Z,61.76
2023-04-29T04:48:56.587Z,61.81
2023-04-29T04:51:23.342Z,61.71
2023-04-29T04:53:50.156Z,61.68
2023-04-29T04:56:17.082Z,61.65
2023-04-29T04:58:44.384Z,61.42
2023-04-29T05:01:11.400Z,61.58
2023-04-29T05:03:38.340Z,61.58
2023-04-29T05:06:05.347Z,61.49
2023-04-29T05:08:32.144Z,61.37
2023-04-29T05:10:58.918Z,61.30
2023-04-29T05:13:25.910Z,61.36
2023-04-29T05:15:52.809Z,61.39
2023-04-29T05:18:19.657Z,61.20
2023-04-29T05:20:46.445Z,61.27
2023-04-29T05:23:13.202Z,61.37
2023-04-29T05:25:40.115Z,61.29
2023-04-29T05:28:07.743Z,61.13
2023-04-29T05:30:34.752Z,61.14
2023-04-29T05:33:01.743Z,61.25
2023-04-29T05:35:28.631Z,61.24
2023-04-29T05:37:55.404Z,61.17
2023-04-29T05:40:23.140Z,61.27
2023-04-29T05:42:49.938Z,61.12
2023-04-29T05:45:16.716Z,61.17
2023-04-29T05:47:43.595Z,61.02
2023-04-29T05:50:11.521Z,60.98
2023-04-29T05:52:39.164Z,61.32
2023-04-29T05:55:06.339Z,61.01
2023-04-29T05:57:33.174Z,61.11
2023-04-29T06:00:00.297Z,61.21
2023-04-29T06:02:27.927Z,61.09
2023-04-29T06:04:55.143Z,61.00
2023-04-29T06:07:22.464Z,60.80
2023-04-29T06:09:49.324Z,61.00
2023-04-29T06:12:16.563Z,60.77
2023-04-29T06:14:43.889Z,60.72
2023-04-29T06:17:11.308Z,60.66
2023-04-29T06:19:38.489Z,60.70
2023-04-29T06:22:05.381Z,60.64
2023-04-29T06:24:32.155Z,60.84
2023-04-29T06:26:58.953Z,60.24
2023-04-29T06:29:25.961Z,60.49
2023-04-29T06:31:54.083Z,60.30
2023-04-29T06:34:20.951Z,60.37
2023-04-29T06:36:47.726Z,60.24
2023-04-29T06:39:14.499Z,60.36
2023-04-29T06:41:41.398Z,60.38
2023-04-29T06:44:08.593Z,60.46
2023-04-29T06:46:35.929Z,60.54
2023-04-29T06:49:02.759Z,60.33
2023-04-29T06:51:29.569Z,60.05
2023-04-29T06:53:56.361Z,60.18
2023-04-29T06:56:23.792Z,60.31
2023-04-29T06:58:50.605Z,60.24
2023-04-29T07:01:17.449Z,60.31
2023-04-29T07:03:44.540Z,60.05
2023-04-29T07:06:11.487Z,60.32
2023-04-29T07:08:38.276Z,59.98
2023-04-29T07:11:05.158Z,60.04
2023-04-29T07:13:32.029Z,60.26
2023-04-29T07:15:58.854Z,60.07
2023-04-29T07:18:25.637Z,60.11
2023-04-29T07:20:52.988Z,59.81
2023-04-29T07:23:19.835Z,59.83
2023-04-29T07:25:46.586Z,59.44
2023-04-29T07:28:13.371Z,59.38
2023-04-29T07:30:40.168Z,59.32
2023-04-29T07:33:07.015Z,59.13
2023-04-29T07:35:34.056Z,59.14
2023-04-29T07:38:01.121Z,58.86
2023-04-29T07:40:27.881Z,58.74
2023-04-29T07:42:54.613Z,58.78
2023-04-29T07:45:21.430Z,58.70
2023-04-29T07:47:48.336Z,58.48
2023-04-29T07:50:16.108Z,58.39
2023-04-29T07:52:42.881Z,57.58
2023-04-29T07:55:09.765Z,57.64
2023-04-29T07:57:36.788Z,57.85
2023-04-29T08:00:04.769Z,57.32
2023-04-29T08:02:31.676Z,57.33
2023-04-29T08:04:59.103Z,57.14
2023-04-29T08:07:26.284Z,57.22
2023-04-29T08:09:53.079Z,57.11
2023-04-29T08:12:19.903Z,57.20
2023-04-29T08:14:46.634Z,56.37
2023-04-29T08:17:13.414Z,56.39
2023-04-29T08:19:40.950Z,56.07
2023-04-29T08:22:07.692Z,55.57
2023-04-29T08:24:35.141Z,55.19
2023-04-29T08:27:01.947Z,55.09
2023-04-29T08:29:32.816Z,55.22
2023-04-29T08:31:59.767Z,55.25
2023-04-29T08:34:26.801Z,55.08
2023-04-29T08:36:53.558Z,55.09
2023-04-29T08:39:20.603Z,55.17
2023-04-29T08:41:51.963Z,55.02
2023-04-29T08:44:18.805Z,54.51
2023-04-29T08:46:46.694Z,54.53
2023-04-29T08:49:14.193Z,54.53
2023-04-29T08:51:41.006Z,53.85
2023-04-29T08:54:07.994Z,53.57
2023-04-29T08:56:34.948Z,53.30
2023-04-29T08:59:02.902Z,52.44
2023-04-29T09:01:31.025Z,52.95
2023-04-29T09:04:14.424Z,52.32
2023-04-29T09:06:41.543Z,52.25
2023-04-29T09:09:08.796Z,51.89
2023-04-29T09:11:37.006Z,51.86
2023-04-29T09:14:08.131Z,51.42
2023-04-29T09:16:37.335Z,51.52
2023-04-29T09:19:04.195Z,51.56
2023-04-29T09:21:32.228Z,51.13
2023-04-29T09:24:01.524Z,50.87
2023-04-29T09:26:41.694Z,50.88
2023-04-29T09:29:16.040Z,50.90
2023-04-29T09:31:42.897Z,51.79
2023-04-29T09:34:11.847Z,50.32
2023-04-29T09:36:56.823Z,50.12
2023-04-29T09:39:24.134Z,50.32
2023-04-29T09:41:53.636Z,50.17
2023-04-29T09:44:33.944Z,49.93
2023-04-29T09:47:06.272Z,49.93
2023-04-29T09:49:42.696Z,50.20
2023-04-29T09:52:16.481Z,49.92
2023-04-29T09:54:44.854Z,50.11
2023-04-29T09:57:15.569Z,50.26
2023-04-29T09:59:42.920Z,50.08
2023-04-29T10:02:19.046Z,50.31
2023-04-29T10:04:49.083Z,50.11
2023-04-29T10:07:17.995Z,50.12
2023-04-29T10:09:49.501Z,50.05
2023-04-29T10:12:18.957Z,49.69
2023-04-29T10:15:12.261Z,49.09
2023-04-29T10:18:21.459Z,49.39
2023-04-29T10:20:49.097Z,49.50
2023-04-29T10:23:17.364Z,49.61
2023-04-29T10:25:45.280Z,49.55
2023-04-29T10:28:16.693Z,49.52
2023-04-29T10:30:45.322Z,49.77
2023-04-29T10:33:12.970Z,49.62
2023-04-29T10:35:40.226Z,49.72
2023-04-29T10:38:19.016Z,49.77
2023-04-29T10:40:47.683Z,49.56
2023-04-29T10:43:15.568Z,49.32
2023-04-29T10:45:42.414Z,49.68
2023-04-29T10:48:12.886Z,49.89
2023-04-29T10:50:48.878Z,49.93
2023-04-29T10:53:16.730Z,50.08
2023-04-29T10:55:47.786Z,49.89
2023-04-29T10:58:46.648Z,49.29
2023-04-29T11:01:16.744Z,49.29
2023-04-29T11:04:04.757Z,49.16
2023-04-29T11:06:37.622Z,48.58
2023-04-29T11:09:12.601Z,48.53
2023-04-29T11:11:58.255Z,48.25
2023-04-29T11:14:31.848Z,47.33
2023-04-29T11:17:09.935Z,47.36
2023-04-29T11:19:41.934Z,46.39
2023-04-29T11:22:24.131Z,46.24
2023-04-29T11:25:00.514Z,46.20
2023-04-29T11:27:32.540Z,45.46
2023-04-29T11:30:01.484Z,45.63
2023-04-29T11:32:34.691Z,46.19
2023-04-29T11:35:16.975Z,46.23
2023-04-29T11:37:46.117Z,46.32
2023-04-29T11:40:14.213Z,46.42
2023-04-29T11:42:49.030Z,46.01
2023-04-29T11:45:19.124Z,45.37
2023-04-29T11:47:47.827Z,45.71
2023-04-29T11:50:19.137Z,45.53
2023-04-29T11:52:50.002Z,45.75
2023-04-29T11:55:17.040Z,45.60
2023-04-29T11:57:44.346Z,45.76
2023-04-29T12:00:13.756Z,45.31
2023-04-29T12:02:46.173Z,45.31
2023-04-29T12:05:13.822Z,45.60
2023-04-29T12:07:41.195Z,45.39
2023-04-29T12:10:10.777Z,45.33
2023-04-29T12:12:40.798Z,45.48
2023-04-29T12:15:10.160Z,45.11
2023-04-29T12:17:38.428Z,44.90
2023-04-29T12:20:08.145Z,44.89
2023-04-29T12:22:35.628Z,44.90
2023-04-29T12:25:04.510Z,44.92
2023-04-29T12:27:33.312Z,44.72
2023-04-29T12:30:00.312Z,44.80
2023-04-29T12:32:27.185Z,44.63
2023-04-29T12:34:55.282Z,44.80
2023-04-29T12:37:23.731Z,44.73
2023-04-29T12:39:50.942Z,44.34
2023-04-29T12:42:18.108Z,43.67
2023-04-29T12:44:48.972Z,44.15
2023-04-29T12:47:17.450Z,44.04
2023-04-29T12:49:49.122Z,43.92
2023-04-29T12:52:17.282Z,44.00
2023-04-29T12:54:44.337Z,43.97
2023-04-29T12:57:12.228Z,43.79
2023-04-29T12:59:41.088Z,43.86
2023-04-29T13:02:08.374Z,43.78
2023-04-29T13:04:35.442Z,44.04
2023-04-29T13:07:04.302Z,43.96
2023-04-29T13:09:31.415Z,44.17
2023-04-29T13:11:59.244Z,44.39
2023-04-29T13:14:26.804Z,44.42
2023-04-29T13:16:53.849Z,44.33
2023-04-29T13:19:38.232Z,44.09
2023-04-29T13:22:07.513Z,44.09
2023-04-29T13:24:35.893Z,44.29
2023-04-29T13:27:05.826Z,44.27
2023-04-29T13:29:32.616Z,44.60
2023-04-29T13:31:59.448Z,44.40
2023-04-29T13:34:26.296Z,44.45
2023-04-29T13:36:53.046Z,44.33
2023-04-29T13:39:22.966Z,44.43
2023-04-29T13:41:50.024Z,44.43
2023-04-29T13:44:27.256Z,44.49
2023-04-29T13:46:57.846Z,44.31
2023-04-29T13:49:54.703Z,44.22
2023-04-29T13:53:09.980Z,44.29
2023-04-29T14:00:01.099Z,43.40
2023-04-29T14:02:29.377Z,43.70
2023-04-29T14:04:56.954Z,43.38
2023-04-29T14:07:23.993Z,43.37
2023-04-29T14:09:51.933Z,43.53
2023-04-29T14:12:18.761Z,43.87
2023-04-29T14:14:45.622Z,43.42
2023-04-29T14:17:12.408Z,43.12
2023-04-29T14:19:39.219Z,43.23
2023-04-29T14:22:06.002Z,43.52
2023-04-29T14:24:32.830Z,43.36
2023-04-29T14:26:59.615Z,43.47
2023-04-29T14:29:26.392Z,43.67
2023-04-29T14:31:53.295Z,43.66
2023-04-29T14:34:20.107Z,43.53
2023-04-29T14:36:47.047Z,43.83
2023-04-29T14:39:13.887Z,43.70
2023-04-29T14:41:40.674Z,43.74
2023-04-29T14:44:07.435Z,43.63
2023-04-29T14:46:34.399Z,43.65
2023-04-29T14:49:01.849Z,43.42
2023-04-29T14:51:29.366Z,43.22
2023-04-29T14:53:56.256Z,43.24
2023-04-29T14:56:23.080Z,43.14
2023-04-29T14:58:49.857Z,43.35
2023-04-29T15:01:16.667Z,42.89
2023-04-29T15:03:45.048Z,43.25
2023-04-29T15:06:13.105Z,43.18
2023-04-29T15:08:39.987Z,43.17
2023-04-29T15:11:06.957Z,43.50
2023-04-29T15:13:33.719Z,43.18
2023-04-29T15:16:00.772Z,43.34
2023-04-29T15:18:27.696Z,43.16
2023-04-29T15:20:54.480Z,42.96
2023-04-29T15:23:21.287Z,43.20
2023-04-29T15:25:48.111Z,43.22
2023-04-29T15:28:14.957Z,43.34
2023-04-29T15:30:41.709Z,43.21
2023-04-29T15:33:08.599Z,43.33
2023-04-29T15:35:36.485Z,42.96
2023-04-29T15:38:03.366Z,42.32
2023-04-29T15:40:30.114Z,42.38
2023-04-29T15:42:56.900Z,42.45
2023-04-29T15:45:23.652Z,42.58
2023-04-29T15:47:50.662Z,42.77
2023-04-29T15:50:17.467Z,43.00
2023-04-29T15:52:44.252Z,42.80
2023-04-29T15:55:11.900Z,42.53
2023-04-29T15:57:41.133Z,42.70
2023-04-29T16:00:09.588Z,42.56
2023-04-29T16:02:36.436Z,42.54
2023-04-29T16:05:03.623Z,42.29
2023-04-29T16:07:30.639Z,42.26
2023-04-29T16:09:57.403Z,42.21
2023-04-29T16:12:24.220Z,42.15
2023-04-29T16:14:51.341Z,41.89
2023-04-29T16:17:18.344Z,41.90
2023-04-29T16:19:45.127Z,41.63
2023-04-29T16:22:12.036Z,41.70
2023-04-29T16:24:38.860Z,41.53
2023-04-29T16:27:05.917Z,41.47
2023-04-29T16:29:33.038Z,41.14
2023-04-29T16:31:59.860Z,41.42
2023-04-29T16:34:26.659Z,41.09
2023-04-29T16:36:53.452Z,41.25
2023-04-29T16:39:20.221Z,41.17
2023-04-29T16:41:47.013Z,40.92
2023-04-29T16:44:14.427Z,40.88
2023-04-29T16:46:41.636Z,40.33
2023-04-29T16:49:08.694Z,40.74
2023-04-29T16:51:35.621Z,40.13
2023-04-29T16:54:02.620Z,39.94
2023-04-29T16:56:31.598Z,40.14
2023-04-29T16:58:58.388Z,39.97
2023-04-29T17:01:25.300Z,39.93
2023-04-29T17:03:52.126Z,39.49
2023-04-29T17:06:18.954Z,39.53
2023-04-29T17:08:45.930Z,39.36
2023-04-29T17:11:12.918Z,39.90
2023-04-29T17:13:39.735Z,40.06
2023-04-29T17:16:07.536Z,40.16
2023-04-29T17:18:34.418Z,39.97
2023-04-29T17:21:01.228Z,40.15
2023-04-29T17:23:30.513Z,40.39
2023-04-29T17:25:57.496Z,40.20
2023-04-29T17:28:24.495Z,40.24
2023-04-29T17:30:53.307Z,39.96
2023-04-29T17:33:20.231Z,39.72
2023-04-29T17:35:47.085Z,39.77
2023-04-29T17:38:13.846Z,39.75
2023-04-29T17:40:41.007Z,40.17
2023-04-29T17:43:07.764Z,40.12
2023-04-29T17:45:34.561Z,40.09
2023-04-29T17:48:01.431Z,40.16
2023-04-29T17:50:28.252Z,39.94
2023-04-29T17:52:55.092Z,39.98
2023-04-29T17:55:21.956Z,40.26
2023-04-29T17:57:48.712Z,40.22
2023-04-29T18:00:15.774Z,40.30
2023-04-29T18:02:42.592Z,40.34
2023-04-29T18:05:09.548Z,40.11
2023-04-29T18:07:36.338Z,40.25
2023-04-29T18:10:03.703Z,40.06
2023-04-29T18:12:30.538Z,40.05
2023-04-29T18:14:57.460Z,40.18
2023-04-29T18:17:24.289Z,40.26
2023-04-29T18:19:51.255Z,40.30
2023-04-29T18:22:19.124Z,40.36
2023-04-29T18:24:47.955Z,40.15
2023-04-29T18:27:14.697Z,40.49
2023-04-29T18:29:41.480Z,40.59
2023-04-29T18:32:08.427Z,40.63
2023-04-29T18:34:35.653Z,40.59
2023-04-29T18:37:02.471Z,40.75
2023-04-29T18:39:29.418Z,40.99
2023-04-29T18:41:56.223Z,41.18
2023-04-29T18:44:23.131Z,41.05
2023-04-29T18:46:50.008Z,40.97
2023-04-29T18:49:17.736Z,41.23
2023-04-29T18:51:47.774Z,41.45
2023-04-29T18:54:17.205Z,41.68
2023-04-29T18:56:49.345Z,41.50
2023-04-29T18:59:18.837Z,41.69
2023-04-29T19:01:47.172Z,42.02
2023-04-29T19:04:14.520Z,42.09
2023-04-29T19:06:41.964Z,42.21
2023-04-29T19:09:13.997Z,42.42
2023-04-29T19:11:40.747Z,42.92
2023-04-29T19:14:07.590Z,43.15
2023-04-29T19:16:36.890Z,43.04
2023-04-29T19:19:06.518Z,43.47
2023-04-29T19:21:35.714Z,43.77
2023-04-29T19:24:02.509Z,43.88
2023-04-29T19:26:34.719Z,43.84
2023-04-29T19:29:02.815Z,44.05
2023-04-29T19:31:29.648Z,44.18
2023-04-29T19:33:56.460Z,44.29
2023-04-29T19:36:23.212Z,44.23
2023-04-29T19:38:50.026Z,44.58
2023-04-29T19:41:17.691Z,44.94
2023-04-29T19:43:44.452Z,44.81
2023-04-29T19:46:14.671Z,45.00
2023-04-29T19:48:41.793Z,45.11
2023-04-29T19:51:09.254Z,45.14
2023-04-29T19:53:36.984Z,45.20
2023-04-29T19:56:03.837Z,45.40
2023-04-29T19:58:30.796Z,45.76
2023-04-29T20:00:57.661Z,45.55
2023-04-29T20:03:25.308Z,45.66
2023-04-29T20:05:52.507Z,46.00
2023-04-29T20:08:19.341Z,45.90
2023-04-29T20:10:46.231Z,46.18
2023-04-29T20:13:12.978Z,46.22
2023-04-29T20:15:40.112Z,46.12
2023-04-29T20:18:06.907Z,46.50
2023-04-29T20:20:33.713Z,46.31
2023-04-29T20:23:00.485Z,46.24
2023-04-29T20:25:28.412Z,46.44
2023-04-29T20:27:57.873Z,46.28
2023-04-29T20:30:26.052Z,46.48
2023-04-29T20:32:52.904Z,46.65
2023-04-29T20:35:20.929Z,46.58
2023-04-29T20:37:47.919Z,46.53
2023-04-29T20:40:14.719Z,46.44
2023-04-29T20:42:41.810Z,46.70
2023-04-29T20:45:09.182Z,46.95
2023-04-29T20:47:35.997Z,46.55
2023-04-29T20:50:04.702Z,46.82
2023-04-29T20:52:34.526Z,46.86
2023-04-29T20:55:01.459Z,46.97
2023-04-29T20:57:28.424Z,46.81
2023-04-29T20:59:55.701Z,46.99
2023-04-29T21:02:22.749Z,47.14
2023-04-29T21:04:49.838Z,47.19
2023-04-29T21:07:16.724Z,47.07
2023-04-29T21:09:43.595Z,46.89
2023-04-29T21:12:10.346Z,47.27
2023-04-29T21:14:37.490Z,47.10
2023-04-29T21:17:04.304Z,47.23
2023-04-29T21:19:31.068Z,47.18
2023-04-29T21:21:57.882Z,47.37
2023-04-29T21:24:24.733Z,47.50
2023-04-29T21:26:51.530Z,47.37
2023-04-29T21:29:19.760Z,47.31
2023-04-29T21:31:46.707Z,47.53
2023-04-29T21:34:13.520Z,47.33
2023-04-29T21:36:40.395Z,47.36
2023-04-29T21:39:07.280Z,47.35
2023-04-29T21:41:38.917Z,47.27
2023-04-29T21:44:07.515Z,47.53
2023-04-29T21:46:35.795Z,47.69
2023-04-29T21:49:04.019Z,47.49
2023-04-29T21:51:31.657Z,47.68
2023-04-29T21:53:58.514Z,47.74
2023-04-29T21:56:25.628Z,47.83
2023-04-29T21:58:53.257Z,47.86
2023-04-29T22:01:38.419Z,47.82
2023-04-29T22:04:05.239Z,47.77
2023-04-29T22:06:33.278Z,47.91
2023-04-29T22:09:00.180Z,47.95
2023-04-29T22:11:26.927Z,47.97
2023-04-29T22:13:53.722Z,47.99
2023-04-29T22:16:20.705Z,48.06
2023-04-29T22:18:48.066Z,48.07
2023-04-29T22:21:15.314Z,48.00
2023-04-29T22:23:42.840Z,48.25
2023-04-29T22:26:09.670Z,48.10
2023-04-29T22:28:36.456Z,48.24
2023-04-29T22:31:03.332Z,48.31
2023-04-29T22:33:30.258Z,48.29
2023-04-29T22:35:57.058Z,48.38
2023-04-29T22:38:23.958Z,48.48
2023-04-29T22:40:51.871Z,48.72
2023-04-29T22:43:18.686Z,48.39
2023-04-29T22:45:53.288Z,48.42
2023-04-29T22:48:20.683Z,48.56
2023-04-29T22:50:55.577Z,48.54
2023-04-29T22:53:22.888Z,48.53
2023-04-29T22:55:58.936Z,48.51
2023-04-29T22:58:26.324Z,48.73
2023-04-29T23:00:57.752Z,48.74
2023-04-29T23:03:25.853Z,48.72
2023-04-29T23:06:02.584Z,48.73
2023-04-29T23:08:29.462Z,48.58
2023-04-29T23:10:56.327Z,48.63
2023-04-29T23:13:23.122Z,48.75
2023-04-29T23:15:49.893Z,48.58
2023-04-29T23:18:16.705Z,48.63
2023-04-29T23:20:47.724Z,48.82
2023-04-29T23:23:15.414Z,48.63
2023-04-29T23:25:42.715Z,48.68
2023-04-29T23:28:09.719Z,48.62
2023-04-29T23:30:36.533Z,48.66
2023-04-29T23:33:03.402Z,48.70
2023-04-29T23:35:31.575Z,48.88
2023-04-29T23:37:58.360Z,48.73
2023-04-29T23:40:25.170Z,48.68
2023-04-29T23:42:52.023Z,48.52
2023-04-29T23:45:18.858Z,48.84
2023-04-29T23:47:45.787Z,48.70
2023-04-29T23:50:12.548Z,48.77
2023-04-29T23:52:39.365Z,48.60
2023-04-29T23:55:06.990Z,48.41
2023-04-29T23:57:33.817Z,48.66
